createdAt,value
2019-03-31T00:00:32.937Z,23.80
2019-03-31T00:02:59.431Z,23.73
2019-03-31T00:05:25.719Z,24.03
2019-03-31T00:07:52.077Z,23.87
2019-03-31T00:10:18.353Z,24.97
2019-03-31T00:12:44.592Z,25.33
2019-03-31T00:15:10.869Z,24.40
2019-03-31T00:17:37.160Z,24.43
2019-03-31T00:20:04.441Z,23.93
2019-03-31T00:22:30.918Z,23.43
2019-03-31T00:24:57.182Z,24.63
2019-03-31T00:27:23.467Z,26.30
2019-03-31T00:29:49.715Z,24.30
2019-03-31T00:32:15.963Z,24.20
2019-03-31T00:34:42.248Z,23.60
2019-03-31T00:37:08.518Z,23.97
2019-03-31T00:39:34.768Z,24.40
2019-03-31T00:42:01.036Z,25.33
2019-03-31T00:44:27.542Z,24.47
2019-03-31T00:46:53.790Z,23.43
2019-03-31T00:49:20.079Z,24.30
2019-03-31T00:51:46.364Z,22.97
2019-03-31T00:54:12.597Z,24.00
2019-03-31T00:56:38.859Z,24.47
2019-03-31T00:59:05.113Z,24.77
2019-03-31T01:01:36.629Z,25.47
2019-03-31T01:04:01.699Z,23.00
2019-03-31T01:06:28.492Z,24.43
2019-03-31T01:08:54.735Z,24.50
2019-03-31T01:11:22.911Z,26.27
2019-03-31T01:13:49.180Z,27.90
2019-03-31T01:16:15.454Z,30.73
2019-03-31T01:18:41.924Z,29.40
2019-03-31T01:21:08.276Z,29.60
2019-03-31T01:23:35.651Z,27.97
2019-03-31T01:26:01.899Z,25.97
2019-03-31T01:28:28.143Z,25.27
2019-03-31T01:30:54.396Z,23.07
2019-03-31T01:33:20.652Z,22.03
2019-03-31T01:35:46.928Z,20.90
2019-03-31T01:38:13.175Z,20.07
2019-03-31T01:40:39.449Z,20.53
2019-03-31T01:43:06.252Z,19.43
2019-03-31T01:45:32.532Z,19.10
2019-03-31T01:47:58.796Z,19.73
2019-03-31T01:50:26.440Z,20.03
2019-03-31T01:52:52.688Z,20.83
2019-03-31T01:55:18.943Z,18.83
2019-03-31T01:57:45.212Z,19.77
2019-03-31T02:00:13.436Z,20.37
2019-03-31T02:02:40.007Z,19.50
2019-03-31T02:05:06.376Z,21.57
2019-03-31T02:07:32.670Z,20.77
2019-03-31T02:10:00.355Z,20.93
2019-03-31T02:12:26.608Z,20.93
2019-03-31T02:14:52.882Z,20.00
2019-03-31T02:17:19.333Z,19.87
2019-03-31T02:19:45.608Z,21.20
2019-03-31T02:22:11.881Z,19.40
2019-03-31T02:24:38.165Z,20.40
2019-03-31T02:27:04.493Z,20.00
2019-03-31T02:29:30.732Z,20.10
2019-03-31T02:31:56.991Z,20.60
2019-03-31T02:34:24.132Z,20.60
2019-03-31T02:36:50.394Z,20.90
2019-03-31T02:39:16.644Z,20.00
2019-03-31T02:41:42.893Z,20.43
2019-03-31T02:44:09.179Z,21.73
2019-03-31T02:46:35.460Z,22.20
2019-03-31T02:49:01.714Z,20.90
2019-03-31T02:51:28.199Z,19.90
2019-03-31T02:53:54.565Z,20.23
2019-03-31T02:56:20.937Z,20.60
2019-03-31T02:58:55.016Z,21.10
2019-03-31T03:01:21.248Z,22.27
2019-03-31T03:03:47.707Z,22.23
2019-03-31T03:06:13.955Z,20.43
2019-03-31T03:08:40.233Z,24.67
2019-03-31T03:11:06.509Z,22.13
2019-03-31T03:13:33.188Z,22.23
2019-03-31T03:16:07.675Z,21.90
2019-03-31T03:18:33.958Z,24.13
2019-03-31T03:21:00.733Z,23.43
2019-03-31T03:23:27.014Z,23.30
2019-03-31T03:25:56.107Z,24.43
2019-03-31T03:28:21.438Z,22.83
2019-03-31T03:30:47.903Z,24.67
2019-03-31T03:33:17.257Z,25.63
2019-03-31T03:35:42.429Z,24.77
2019-03-31T03:38:08.956Z,24.00
2019-03-31T03:40:35.232Z,23.40
2019-03-31T03:43:01.516Z,24.97
2019-03-31T03:45:27.799Z,24.40
2019-03-31T03:47:54.067Z,25.37
2019-03-31T03:50:20.358Z,24.13
2019-03-31T03:52:46.679Z,25.33
2019-03-31T03:55:13.550Z,26.73
2019-03-31T03:57:41.690Z,23.60
2019-03-31T04:00:09.169Z,24.43
2019-03-31T04:02:35.429Z,25.37
2019-03-31T04:05:02.418Z,24.00
2019-03-31T04:07:28.650Z,23.67
2019-03-31T04:09:54.937Z,24.17
2019-03-31T04:12:21.186Z,23.37
2019-03-31T04:14:47.458Z,22.97
2019-03-31T04:17:13.701Z,24.17
2019-03-31T04:19:40.008Z,29.00
2019-03-31T04:22:06.285Z,32.03
2019-03-31T04:24:33.653Z,31.97
2019-03-31T04:27:01.125Z,37.07
2019-03-31T04:29:27.396Z,36.07
2019-03-31T04:31:53.665Z,38.63
2019-03-31T04:34:19.929Z,39.50
2019-03-31T04:36:46.215Z,36.33
2019-03-31T04:39:12.484Z,36.87
2019-03-31T04:41:38.756Z,38.87
2019-03-31T04:44:05.000Z,39.73
2019-03-31T04:46:31.292Z,39.60
2019-03-31T04:48:57.529Z,37.67
2019-03-31T04:51:23.818Z,37.30
2019-03-31T04:53:50.056Z,36.87
2019-03-31T04:56:16.307Z,37.20
2019-03-31T04:58:42.551Z,38.80
2019-03-31T05:01:08.853Z,37.83
2019-03-31T05:03:35.119Z,39.07
2019-03-31T05:06:01.376Z,41.17
2019-03-31T05:08:27.639Z,39.93
2019-03-31T05:10:53.872Z,38.87
2019-03-31T05:13:20.153Z,37.47
2019-03-31T05:15:46.574Z,39.47
2019-03-31T05:18:12.810Z,38.07
2019-03-31T05:20:39.056Z,40.07
2019-03-31T05:23:05.333Z,40.27
2019-03-31T05:25:31.580Z,42.47
2019-03-31T05:27:57.861Z,42.47
2019-03-31T05:30:24.136Z,42.53
2019-03-31T05:32:50.391Z,43.77
2019-03-31T05:35:16.634Z,40.53
2019-03-31T05:37:50.854Z,40.33
2019-03-31T05:40:11.354Z,41.27
2019-03-31T05:42:37.886Z,40.10
2019-03-31T05:45:04.929Z,38.50
2019-03-31T05:47:31.221Z,38.23
2019-03-31T05:49:57.454Z,37.07
2019-03-31T05:52:23.733Z,35.97
2019-03-31T05:54:51.065Z,36.40
2019-03-31T05:57:17.339Z,35.67
2019-03-31T05:59:43.620Z,34.90
2019-03-31T06:02:10.039Z,36.10
2019-03-31T06:04:36.382Z,35.87
2019-03-31T06:07:02.613Z,35.07
2019-03-31T06:09:28.892Z,35.00
2019-03-31T06:11:55.278Z,34.57
2019-03-31T06:14:21.550Z,33.43
2019-03-31T06:16:48.295Z,34.77
2019-03-31T06:19:14.573Z,33.17
2019-03-31T06:21:40.876Z,31.80
2019-03-31T06:24:07.125Z,34.00
2019-03-31T06:26:33.400Z,30.73
2019-03-31T06:28:59.682Z,31.37
2019-03-31T06:31:25.961Z,31.50
2019-03-31T06:33:52.196Z,30.93
2019-03-31T06:36:18.494Z,30.47
2019-03-31T06:38:44.761Z,31.23
2019-03-31T06:41:11.036Z,32.57
2019-03-31T06:43:37.295Z,31.20
2019-03-31T06:46:03.572Z,31.50
2019-03-31T06:48:29.841Z,32.63
2019-03-31T06:50:56.077Z,30.27
2019-03-31T06:53:22.337Z,28.83
2019-03-31T06:55:48.720Z,18.37
2019-03-31T06:58:15.882Z,14.40
2019-03-31T07:00:42.174Z,14.60
2019-03-31T07:03:08.439Z,13.83
2019-03-31T07:05:34.744Z,13.33
2019-03-31T07:08:01.892Z,13.03
2019-03-31T07:10:28.183Z,13.53
2019-03-31T07:12:54.515Z,14.03
2019-03-31T07:15:20.772Z,14.37
2019-03-31T07:17:47.025Z,13.23
2019-03-31T07:20:13.534Z,13.60
2019-03-31T07:22:39.815Z,12.93
2019-03-31T07:25:08.148Z,25.23
2019-03-31T07:27:35.331Z,13.60
2019-03-31T07:30:07.176Z,12.50
2019-03-31T07:32:33.125Z,11.67
2019-03-31T07:34:59.765Z,12.03
2019-03-31T07:37:26.076Z,12.10
2019-03-31T07:39:52.377Z,12.73
2019-03-31T07:42:18.613Z,10.83
2019-03-31T07:44:44.867Z,11.73
2019-03-31T07:47:11.138Z,11.57
2019-03-31T07:49:37.444Z,11.80
2019-03-31T07:52:03.682Z,10.63
2019-03-31T07:54:29.971Z,11.60
2019-03-31T07:56:56.481Z,10.67
2019-03-31T07:59:23.959Z,9.40
2019-03-31T08:01:50.296Z,9.80
2019-03-31T08:04:16.770Z,9.80
2019-03-31T08:06:43.037Z,10.13
2019-03-31T08:09:09.315Z,9.47
2019-03-31T08:11:37.199Z,9.80
2019-03-31T08:14:03.465Z,9.97
2019-03-31T08:16:29.739Z,9.77
2019-03-31T08:18:56.025Z,9.57
2019-03-31T08:21:22.261Z,9.13
2019-03-31T08:23:48.541Z,9.10
2019-03-31T08:26:14.790Z,8.07
2019-03-31T08:28:41.363Z,8.17
2019-03-31T08:31:07.644Z,9.07
2019-03-31T08:33:33.887Z,8.70
2019-03-31T08:36:00.180Z,9.67
2019-03-31T08:38:26.447Z,10.03
2019-03-31T08:40:52.712Z,10.40
2019-03-31T08:43:18.952Z,10.20
2019-03-31T08:45:45.197Z,10.37
2019-03-31T08:48:11.487Z,9.90
2019-03-31T08:50:37.769Z,10.00
2019-03-31T08:53:04.172Z,9.37
2019-03-31T08:55:30.438Z,9.27
2019-03-31T08:57:57.865Z,8.53
2019-03-31T09:00:26.153Z,8.20
2019-03-31T09:02:52.433Z,9.33
2019-03-31T09:05:18.680Z,9.00
2019-03-31T09:07:44.960Z,9.03
2019-03-31T09:10:13.116Z,9.40
2019-03-31T09:12:39.392Z,9.73
2019-03-31T09:15:07.433Z,9.43
2019-03-31T09:17:33.711Z,9.93
2019-03-31T09:19:59.953Z,7.60
2019-03-31T09:22:26.199Z,9.17
2019-03-31T09:24:52.479Z,9.23
2019-03-31T09:27:18.723Z,10.03
2019-03-31T09:29:45.024Z,9.93
2019-03-31T09:32:11.294Z,8.53
2019-03-31T09:34:37.664Z,9.30
2019-03-31T09:37:03.923Z,9.27
2019-03-31T09:39:30.200Z,9.13
2019-03-31T09:41:56.480Z,8.47
2019-03-31T09:44:22.768Z,8.57
2019-03-31T09:46:49.022Z,7.40
2019-03-31T09:49:15.299Z,7.93
2019-03-31T09:51:41.580Z,6.63
2019-03-31T09:54:07.839Z,8.07
2019-03-31T09:56:34.232Z,7.43
2019-03-31T09:59:00.465Z,7.77
2019-03-31T10:01:26.823Z,7.70
2019-03-31T10:03:53.335Z,8.30
2019-03-31T10:06:30.037Z,8.97
2019-03-31T10:08:47.738Z,8.30
2019-03-31T10:11:14.003Z,8.50
2019-03-31T10:13:40.480Z,7.93
2019-03-31T10:16:06.730Z,7.87
2019-03-31T10:18:33.016Z,8.30
2019-03-31T10:20:59.349Z,8.50
2019-03-31T10:23:25.655Z,7.73
2019-03-31T10:25:51.893Z,7.67
2019-03-31T10:28:18.177Z,7.90
2019-03-31T10:30:44.424Z,8.00
2019-03-31T10:33:10.674Z,8.57
2019-03-31T10:35:36.957Z,6.90
2019-03-31T10:38:03.224Z,7.27
2019-03-31T10:40:29.578Z,8.50
2019-03-31T10:42:56.082Z,9.33
2019-03-31T10:45:22.331Z,7.67
2019-03-31T10:47:48.608Z,7.27
2019-03-31T10:50:15.011Z,5.00
2019-03-31T10:52:41.251Z,4.20
2019-03-31T10:55:07.526Z,2.97
2019-03-31T10:57:33.783Z,2.43
2019-03-31T11:00:00.174Z,2.93
2019-03-31T11:02:26.513Z,3.60
2019-03-31T11:04:52.763Z,3.37
2019-03-31T11:07:19.082Z,3.00
2019-03-31T11:09:45.351Z,3.30
2019-03-31T11:12:11.682Z,3.20
2019-03-31T11:14:37.940Z,3.40
2019-03-31T11:17:04.186Z,3.07
2019-03-31T11:19:30.474Z,3.27
2019-03-31T11:22:04.604Z,3.17
2019-03-31T11:24:30.855Z,3.30
2019-03-31T11:26:57.147Z,2.97
2019-03-31T11:29:23.413Z,2.70
2019-03-31T11:31:49.922Z,2.97
2019-03-31T11:34:16.184Z,2.67
2019-03-31T11:36:42.433Z,2.90
2019-03-31T11:39:09.832Z,2.77
2019-03-31T11:41:36.134Z,2.90
2019-03-31T11:44:02.393Z,2.50
2019-03-31T11:46:28.680Z,2.10
2019-03-31T11:48:54.954Z,2.67
2019-03-31T11:51:21.333Z,2.90
2019-03-31T11:53:48.709Z,2.83
2019-03-31T11:56:14.955Z,2.60
2019-03-31T11:58:41.287Z,2.63
2019-03-31T12:01:08.280Z,2.27
2019-03-31T12:03:34.544Z,2.60
2019-03-31T12:06:00.901Z,2.00
2019-03-31T12:08:27.180Z,1.77
2019-03-31T12:10:53.455Z,1.70
2019-03-31T12:13:19.731Z,1.70
2019-03-31T12:15:46.020Z,1.77
2019-03-31T12:18:12.281Z,1.40
2019-03-31T12:20:38.522Z,1.40
2019-03-31T12:23:04.806Z,1.43
2019-03-31T12:25:31.083Z,1.30
2019-03-31T12:27:57.385Z,1.30
2019-03-31T12:30:26.383Z,1.10
2019-03-31T12:32:52.669Z,1.00
2019-03-31T12:35:18.914Z,1.20
2019-03-31T12:37:45.188Z,1.60
2019-03-31T12:40:30.796Z,0.93
2019-03-31T12:42:57.131Z,1.27
2019-03-31T12:45:23.373Z,1.10
2019-03-31T12:47:49.888Z,1.53
2019-03-31T12:50:16.132Z,1.10
2019-03-31T12:52:46.991Z,1.37
2019-03-31T12:55:10.668Z,1.20
2019-03-31T12:57:36.990Z,1.00
2019-03-31T13:00:04.761Z,1.13
2019-03-31T13:02:31.068Z,1.07
2019-03-31T13:04:57.611Z,1.00
2019-03-31T13:07:23.879Z,1.30
2019-03-31T13:09:50.163Z,1.23
2019-03-31T13:12:16.408Z,1.60
2019-03-31T13:14:42.649Z,1.27
2019-03-31T13:17:08.909Z,1.30
2019-03-31T13:19:35.196Z,1.33
2019-03-31T13:22:01.490Z,1.50
2019-03-31T13:24:27.759Z,1.60
2019-03-31T13:26:54.049Z,1.53
2019-03-31T13:29:20.316Z,1.47
2019-03-31T13:31:46.594Z,1.30
2019-03-31T13:34:12.875Z,1.20
2019-03-31T13:36:39.147Z,1.40
2019-03-31T13:39:05.505Z,1.50
2019-03-31T13:41:31.740Z,1.03
2019-03-31T13:43:58.023Z,1.20
2019-03-31T13:46:24.264Z,0.70
2019-03-31T13:48:50.527Z,1.00
2019-03-31T13:51:16.769Z,1.10
2019-03-31T13:53:43.895Z,0.80
2019-03-31T13:56:10.432Z,1.10
2019-03-31T13:58:38.566Z,0.90
2019-03-31T14:01:05.185Z,0.90
2019-03-31T14:03:31.939Z,1.20
2019-03-31T14:05:58.209Z,0.90
2019-03-31T14:08:26.085Z,0.90
2019-03-31T14:10:52.535Z,0.90
2019-03-31T14:13:19.039Z,1.13
2019-03-31T14:15:45.337Z,1.23
2019-03-31T14:18:11.578Z,0.90
2019-03-31T14:20:37.854Z,1.37
2019-03-31T14:23:04.101Z,1.33
2019-03-31T14:25:30.382Z,1.20
2019-03-31T14:27:56.771Z,1.03
2019-03-31T14:30:23.035Z,0.93
2019-03-31T14:32:50.415Z,1.20
2019-03-31T14:35:16.958Z,1.03
2019-03-31T14:37:43.206Z,1.13
2019-03-31T14:40:09.481Z,1.10
2019-03-31T14:42:35.799Z,0.90
2019-03-31T14:45:03.375Z,1.10
2019-03-31T14:47:29.667Z,1.30
2019-03-31T14:49:55.902Z,0.90
2019-03-31T14:52:27.599Z,1.23
2019-03-31T14:54:50.655Z,1.40
2019-03-31T14:57:22.998Z,1.30
2019-03-31T14:59:49.273Z,1.13
2019-03-31T15:02:15.576Z,1.00
2019-03-31T15:04:41.858Z,1.10
2019-03-31T15:07:08.136Z,1.00
2019-03-31T15:09:34.413Z,1.53
2019-03-31T15:12:00.682Z,1.00
2019-03-31T15:14:26.960Z,1.20
2019-03-31T15:16:53.217Z,1.20
2019-03-31T15:19:19.471Z,1.00
2019-03-31T15:21:45.750Z,1.00
2019-03-31T15:24:13.087Z,1.60
2019-03-31T15:26:40.170Z,1.73
2019-03-31T15:29:06.458Z,1.07
2019-03-31T15:31:32.731Z,1.57
2019-03-31T15:33:59.003Z,1.07
2019-03-31T15:36:25.259Z,1.00
2019-03-31T15:38:51.498Z,0.90
2019-03-31T15:41:21.350Z,1.03
2019-03-31T15:43:45.905Z,1.10
2019-03-31T15:46:12.160Z,1.00
2019-03-31T15:48:38.481Z,1.20
2019-03-31T15:51:04.765Z,1.43
2019-03-31T15:53:31.003Z,1.10
2019-03-31T15:55:57.249Z,1.10
2019-03-31T15:58:23.617Z,1.03
2019-03-31T16:00:49.961Z,1.47
2019-03-31T16:03:16.203Z,0.80
2019-03-31T16:05:42.553Z,1.10
2019-03-31T16:08:11.940Z,1.10
2019-03-31T16:10:38.327Z,1.50
2019-03-31T16:13:04.569Z,1.30
2019-03-31T16:15:30.817Z,1.30
2019-03-31T16:17:58.189Z,0.87
2019-03-31T16:20:24.455Z,0.90
2019-03-31T16:22:50.740Z,1.37
2019-03-31T16:25:41.913Z,1.00
2019-03-31T16:28:08.153Z,1.90
2019-03-31T16:30:35.429Z,1.13
2019-03-31T16:33:01.753Z,1.40
2019-03-31T16:35:28.052Z,1.07
2019-03-31T16:37:54.324Z,1.20
2019-03-31T16:40:20.612Z,1.70
2019-03-31T16:42:46.849Z,0.80
2019-03-31T16:45:13.100Z,1.10
2019-03-31T16:47:39.466Z,1.00
2019-03-31T16:50:05.715Z,1.43
2019-03-31T16:52:32.021Z,1.70
2019-03-31T16:54:58.397Z,1.50
2019-03-31T16:57:24.941Z,1.10
2019-03-31T16:59:51.208Z,1.20
2019-03-31T17:02:18.012Z,1.40
2019-03-31T17:04:44.291Z,1.60
2019-03-31T17:07:10.546Z,1.20
2019-03-31T17:09:50.673Z,1.43
2019-03-31T17:12:06.138Z,1.37
2019-03-31T17:14:32.402Z,1.27
2019-03-31T17:16:58.795Z,2.07
2019-03-31T17:19:30.962Z,1.33
2019-03-31T17:21:59.745Z,1.90
2019-03-31T17:24:25.665Z,1.50
2019-03-31T17:26:51.938Z,1.37
2019-03-31T17:29:18.298Z,1.33
2019-03-31T17:31:44.581Z,1.23
2019-03-31T17:34:10.837Z,1.60
2019-03-31T17:36:37.088Z,1.10
2019-03-31T17:39:06.142Z,1.60
2019-03-31T17:41:32.419Z,1.57
2019-03-31T17:43:58.689Z,1.60
2019-03-31T17:46:24.927Z,1.87
2019-03-31T17:48:51.200Z,1.90
2019-03-31T17:51:17.472Z,2.70
2019-03-31T17:53:43.907Z,2.23
2019-03-31T17:56:10.255Z,3.47
2019-03-31T17:58:36.895Z,2.90
2019-03-31T18:01:03.230Z,2.30
2019-03-31T18:03:29.509Z,3.03
2019-03-31T18:05:55.809Z,2.60
2019-03-31T18:08:22.092Z,2.60
2019-03-31T18:10:48.408Z,3.20
2019-03-31T18:13:14.696Z,2.87
2019-03-31T18:15:41.083Z,2.27
2019-03-31T18:18:07.380Z,3.33
2019-03-31T18:20:33.670Z,3.27
2019-03-31T18:22:59.937Z,3.13
2019-03-31T18:25:26.266Z,3.60
2019-03-31T18:27:52.504Z,3.20
2019-03-31T18:30:18.782Z,2.83
2019-03-31T18:32:45.098Z,3.10
2019-03-31T18:35:11.938Z,2.50
2019-03-31T18:37:38.315Z,2.70
2019-03-31T18:40:07.812Z,3.03
2019-03-31T18:42:34.056Z,2.10
2019-03-31T18:45:07.911Z,3.27
2019-03-31T18:47:35.304Z,2.33
2019-03-31T18:50:04.624Z,2.60
2019-03-31T18:52:31.892Z,2.70
2019-03-31T18:55:04.568Z,1.90
2019-03-31T18:57:49.088Z,1.97
2019-03-31T19:00:33.859Z,2.53
2019-03-31T19:03:13.944Z,2.20
2019-03-31T19:05:42.104Z,2.70
2019-03-31T19:08:25.605Z,3.07
2019-03-31T19:10:53.778Z,1.70
2019-03-31T19:13:22.034Z,2.53
2019-03-31T19:15:50.318Z,2.17
2019-03-31T19:18:36.536Z,2.73
2019-03-31T19:21:21.910Z,3.60
2019-03-31T19:23:48.196Z,2.87
2019-03-31T19:26:22.029Z,3.50
2019-03-31T19:28:57.978Z,3.00
2019-03-31T19:31:29.142Z,2.87
2019-03-31T19:33:57.350Z,3.00
2019-03-31T19:36:31.574Z,3.00
2019-03-31T19:39:08.713Z,2.77
2019-03-31T19:41:53.201Z,2.50
2019-03-31T19:44:27.279Z,2.77
2019-03-31T19:46:59.137Z,2.50
2019-03-31T19:49:34.262Z,2.00
2019-03-31T19:52:06.608Z,2.43
2019-03-31T19:54:38.153Z,1.80
2019-03-31T19:57:12.281Z,1.57
2019-03-31T19:59:40.437Z,2.37
2019-03-31T20:02:14.803Z,2.30
2019-03-31T20:04:47.026Z,2.17
2019-03-31T20:07:32.134Z,3.00
2019-03-31T20:10:06.022Z,3.80
2019-03-31T20:12:51.080Z,3.40
2019-03-31T20:15:37.353Z,3.40
2019-03-31T20:18:14.439Z,3.43
2019-03-31T20:21:00.731Z,2.57
2019-03-31T20:23:35.058Z,2.57
2019-03-31T20:26:07.249Z,2.63
2019-03-31T20:28:35.434Z,2.83
2019-03-31T20:31:06.379Z,3.20
2019-03-31T20:33:35.539Z,7.17
2019-03-31T20:36:21.587Z,6.60
2019-03-31T20:39:07.997Z,4.93
2019-03-31T20:41:36.298Z,3.83
2019-03-31T20:44:02.706Z,2.20
2019-03-31T20:46:28.936Z,2.03
2019-03-31T20:48:55.214Z,2.20
2019-03-31T20:51:21.495Z,2.70
2019-03-31T20:53:48.031Z,2.17
2019-03-31T20:56:14.301Z,2.17
2019-03-31T20:58:40.548Z,2.43
2019-03-31T21:01:09.961Z,3.27
2019-03-31T21:03:38.103Z,3.00
2019-03-31T21:06:04.661Z,2.10
2019-03-31T21:08:30.940Z,2.47
2019-03-31T21:11:02.143Z,2.80
2019-03-31T21:13:28.405Z,2.50
2019-03-31T21:15:54.718Z,2.00
2019-03-31T21:18:21.286Z,1.47
2019-03-31T21:20:47.574Z,1.47
2019-03-31T21:23:13.889Z,1.33
2019-03-31T21:25:40.166Z,1.67
2019-03-31T21:28:06.447Z,1.60
2019-03-31T21:30:32.708Z,1.87
2019-03-31T21:33:00.130Z,1.57
2019-03-31T21:35:26.420Z,1.67
2019-03-31T21:37:53.158Z,1.40
2019-03-31T21:40:19.431Z,1.57
2019-03-31T21:42:45.808Z,2.60
2019-03-31T21:45:12.577Z,1.73
2019-03-31T21:47:39.281Z,2.33
2019-03-31T21:50:06.048Z,1.60
2019-03-31T21:52:33.131Z,1.60
2019-03-31T21:54:59.468Z,1.83
2019-03-31T21:57:25.842Z,1.40
2019-03-31T21:59:52.239Z,1.23
2019-03-31T22:02:20.069Z,1.77
2019-03-31T22:04:46.581Z,1.83
2019-03-31T22:07:12.819Z,1.47
2019-03-31T22:09:39.096Z,2.13
2019-03-31T22:12:06.099Z,1.77
2019-03-31T22:14:32.339Z,2.00
2019-03-31T22:16:59.719Z,2.40
2019-03-31T22:19:26.002Z,2.73
2019-03-31T22:21:52.282Z,2.70
2019-03-31T22:24:18.533Z,2.40
2019-03-31T22:26:44.926Z,2.63
2019-03-31T22:29:11.170Z,2.10
2019-03-31T22:31:37.422Z,2.37
2019-03-31T22:34:03.666Z,2.23
2019-03-31T22:36:30.456Z,2.40
2019-03-31T22:38:56.732Z,2.10
2019-03-31T22:41:22.985Z,2.63
2019-03-31T22:43:49.264Z,1.97
2019-03-31T22:46:16.918Z,2.23
2019-03-31T22:48:43.193Z,2.10
2019-03-31T22:51:09.470Z,2.10
2019-03-31T22:53:35.853Z,2.70
2019-03-31T22:56:02.231Z,2.30
2019-03-31T22:58:28.484Z,2.10
2019-03-31T23:00:54.769Z,2.27
2019-03-31T23:03:21.021Z,1.93
2019-03-31T23:05:47.305Z,2.07
2019-03-31T23:08:14.647Z,2.20
2019-03-31T23:10:40.895Z,2.60
2019-03-31T23:13:07.152Z,2.47
2019-03-31T23:15:33.429Z,2.80
2019-03-31T23:17:59.671Z,2.40
2019-03-31T23:20:25.916Z,2.17
2019-03-31T23:22:52.199Z,2.47
2019-03-31T23:25:18.445Z,2.93
2019-03-31T23:27:44.685Z,2.43
2019-03-31T23:30:11.340Z,2.27
2019-03-31T23:32:37.590Z,2.20
2019-03-31T23:35:05.345Z,2.70
2019-03-31T23:37:33.633Z,2.60
2019-03-31T23:40:00.405Z,2.67
2019-03-31T23:42:26.691Z,2.47
2019-03-31T23:44:53.037Z,2.80
2019-03-31T23:47:19.325Z,2.30
2019-03-31T23:49:45.598Z,2.57
2019-03-31T23:52:11.864Z,2.33
2019-03-31T23:54:38.140Z,2.40
2019-03-31T23:57:05.768Z,2.27
2019-03-31T23:59:32.260Z,2.60
